createdAt,value
2023-02-25T00:01:57.755Z,-1.81
2023-02-25T00:04:30.954Z,-1.81
2023-02-25T00:07:17.698Z,-1.81
2023-02-25T00:09:46.524Z,-1.83
2023-02-25T00:12:13.527Z,-1.86
2023-02-25T00:14:40.572Z,-1.87
2023-02-25T00:17:10.758Z,-1.87
2023-02-25T00:19:39.179Z,-1.87
2023-02-25T00:22:06.045Z,-1.85
2023-02-25T00:24:34.840Z,-1.82
2023-02-25T00:27:01.817Z,-1.79
2023-02-25T00:29:29.316Z,-1.76
2023-02-25T00:31:56.735Z,-1.74
2023-02-25T00:34:24.135Z,-1.71
2023-02-25T00:36:51.110Z,-1.70
2023-02-25T00:39:19.696Z,-1.69
2023-02-25T00:41:46.868Z,-1.67
2023-02-25T00:44:13.870Z,-1.65
2023-02-25T00:46:41.184Z,-1.62
2023-02-25T00:49:09.674Z,-1.59
2023-02-25T00:51:38.373Z,-1.56
2023-02-25T00:54:05.318Z,-1.53
2023-02-25T00:56:33.912Z,-1.52
2023-02-25T00:59:00.954Z,-1.50
2023-02-25T01:01:30.676Z,-1.49
2023-02-25T01:03:58.894Z,-1.48
2023-02-25T01:06:27.413Z,-1.46
2023-02-25T01:08:55.190Z,-1.45
2023-02-25T01:11:29.359Z,-1.43
2023-02-25T01:14:11.013Z,-1.39
2023-02-25T01:16:40.564Z,-1.34
2023-02-25T01:19:16.702Z,-1.30
2023-02-25T01:21:47.571Z,-1.25
2023-02-25T01:24:24.299Z,-1.20
2023-02-25T01:26:57.387Z,-1.16
2023-02-25T01:29:28.156Z,-1.13
2023-02-25T01:32:01.263Z,-1.09
2023-02-25T01:34:29.124Z,-1.05
2023-02-25T01:36:57.930Z,-1.02
2023-02-25T01:39:26.658Z,-0.98
2023-02-25T01:41:56.233Z,-0.94
2023-02-25T01:44:33.489Z,-0.90
2023-02-25T01:47:19.636Z,-0.84
2023-02-25T01:49:47.302Z,-0.80
2023-02-25T01:52:22.202Z,-0.77
2023-02-25T01:54:56.654Z,-0.74
2023-02-25T01:57:25.610Z,-0.68
2023-02-25T01:59:55.254Z,-0.62
2023-02-25T02:02:33.457Z,-0.53
2023-02-25T02:05:00.356Z,-0.45
2023-02-25T02:07:27.669Z,-0.37
2023-02-25T02:09:56.221Z,-0.27
2023-02-25T02:12:31.202Z,-0.19
2023-02-25T02:15:01.905Z,-0.12
2023-02-25T02:17:43.358Z,-0.04
2023-02-25T02:20:24.950Z,0.01
2023-02-25T02:23:21.564Z,0.07
2023-02-25T02:26:09.818Z,0.10
2023-02-25T02:28:58.319Z,0.13
2023-02-25T02:31:34.625Z,0.15
2023-02-25T02:34:30.152Z,0.16
2023-02-25T02:37:11.831Z,0.19
2023-02-25T02:39:54.266Z,0.21
2023-02-25T02:42:40.623Z,0.23
2023-02-25T02:45:16.845Z,0.26
2023-02-25T02:47:51.678Z,0.29
2023-02-25T02:50:28.940Z,0.31
2023-02-25T02:52:59.489Z,0.31
2023-02-25T02:55:35.914Z,0.31
2023-02-25T02:58:22.328Z,0.29
2023-02-25T03:00:58.819Z,0.29
2023-02-25T03:03:37.410Z,0.29
2023-02-25T03:06:10.044Z,0.30
2023-02-25T03:08:45.465Z,0.31
2023-02-25T03:11:13.893Z,0.33
2023-02-25T03:13:42.200Z,0.35
2023-02-25T03:16:17.487Z,0.38
2023-02-25T03:18:56.890Z,0.40
2023-02-25T03:21:29.952Z,0.41
2023-02-25T03:23:58.955Z,0.43
2023-02-25T03:26:29.575Z,0.44
2023-02-25T03:29:00.399Z,0.45
2023-02-25T03:31:35.753Z,0.46
2023-02-25T03:34:13.264Z,0.48
2023-02-25T03:36:54.005Z,0.51
2023-02-25T03:39:26.372Z,0.54
2023-02-25T03:41:57.258Z,0.57
2023-02-25T03:44:47.965Z,0.59
2023-02-25T03:47:16.575Z,0.61
2023-02-25T03:49:51.290Z,0.61
2023-02-25T03:52:22.342Z,0.62
2023-02-25T03:54:51.672Z,0.63
2023-02-25T03:57:24.498Z,0.64
2023-02-25T03:59:55.802Z,0.65
2023-02-25T04:02:32.802Z,0.66
2023-02-25T04:04:59.961Z,0.68
2023-02-25T04:07:26.847Z,0.69
2023-02-25T04:09:54.262Z,0.70
2023-02-25T04:12:23.336Z,0.72
2023-02-25T04:14:50.280Z,0.72
2023-02-25T04:17:19.345Z,0.72
2023-02-25T04:19:50.920Z,0.73
2023-02-25T04:22:17.938Z,0.74
2023-02-25T04:24:44.814Z,0.75
2023-02-25T04:27:15.689Z,0.77
2023-02-25T04:29:46.312Z,0.80
2023-02-25T04:32:13.661Z,0.83
2023-02-25T04:34:40.601Z,0.87
2023-02-25T04:37:08.781Z,0.90
2023-02-25T04:39:36.096Z,0.90
2023-02-25T04:42:03.391Z,0.91
2023-02-25T04:44:34.174Z,0.91
2023-02-25T04:47:02.301Z,0.91
2023-02-25T04:49:29.449Z,0.91
2023-02-25T04:51:56.468Z,0.91
2023-02-25T04:54:23.318Z,0.93
2023-02-25T04:56:50.367Z,0.94
2023-02-25T04:59:18.948Z,0.97
2023-02-25T05:01:45.825Z,0.98
2023-02-25T05:04:12.987Z,0.99
2023-02-25T05:06:40.047Z,1.00
2023-02-25T05:09:09.312Z,0.99
2023-02-25T05:11:37.654Z,0.99
2023-02-25T05:14:05.550Z,0.99
2023-02-25T05:16:32.817Z,0.98
2023-02-25T05:19:00.158Z,0.98
2023-02-25T05:21:32.528Z,0.99
2023-02-25T05:23:59.589Z,0.99
2023-02-25T05:26:27.131Z,1.00
2023-02-25T05:28:58.152Z,1.02
2023-02-25T05:31:25.877Z,1.02
2023-02-25T05:33:53.208Z,1.04
2023-02-25T05:36:21.735Z,1.05
2023-02-25T05:38:54.442Z,1.05
2023-02-25T05:41:21.487Z,1.06
2023-02-25T05:43:48.533Z,1.05
2023-02-25T05:46:16.094Z,1.06
2023-02-25T05:48:47.803Z,1.06
2023-02-25T05:51:22.170Z,1.08
2023-02-25T05:53:52.424Z,1.09
2023-02-25T05:56:22.815Z,1.11
2023-02-25T05:58:50.622Z,1.13
2023-02-25T06:01:22.288Z,1.15
2023-02-25T06:03:51.117Z,1.15
2023-02-25T06:06:24.170Z,1.16
2023-02-25T06:08:53.216Z,1.16
2023-02-25T06:11:23.884Z,1.19
2023-02-25T06:13:52.629Z,1.20
2023-02-25T06:16:21.178Z,1.22
2023-02-25T06:18:50.937Z,1.22
2023-02-25T06:21:19.271Z,1.23
2023-02-25T06:23:49.649Z,1.25
2023-02-25T06:26:17.606Z,1.27
2023-02-25T06:28:44.971Z,1.29
2023-02-25T06:31:16.710Z,1.31
2023-02-25T06:33:46.106Z,1.31
2023-02-25T06:36:14.999Z,1.33
2023-02-25T06:38:45.470Z,1.34
2023-02-25T06:41:16.062Z,1.37
2023-02-25T06:43:44.753Z,1.42
2023-02-25T06:46:14.078Z,1.45
2023-02-25T06:48:46.140Z,1.49
2023-02-25T06:51:13.621Z,1.52
2023-02-25T06:53:42.781Z,1.54
2023-02-25T06:56:12.495Z,1.56
2023-02-25T06:58:39.952Z,1.59
2023-02-25T07:01:13.395Z,1.61
2023-02-25T07:03:45.140Z,1.63
2023-02-25T07:06:15.331Z,1.66
2023-02-25T07:08:42.564Z,1.70
2023-02-25T07:11:17.180Z,1.75
2023-02-25T07:13:47.933Z,1.79
2023-02-25T07:16:16.456Z,1.84
2023-02-25T07:18:50.413Z,1.87
2023-02-25T07:21:17.452Z,1.91
2023-02-25T07:23:46.013Z,1.92
2023-02-25T07:26:13.624Z,1.95
2023-02-25T07:28:40.925Z,1.97
2023-02-25T07:31:14.290Z,1.99
2023-02-25T07:33:45.453Z,2.00
2023-02-25T07:36:13.509Z,2.03
2023-02-25T07:38:41.559Z,2.06
2023-02-25T07:41:11.008Z,2.07
2023-02-25T07:43:39.504Z,2.08
2023-02-25T07:46:08.597Z,2.09
2023-02-25T07:48:36.444Z,2.09
2023-02-25T07:51:09.279Z,2.11
2023-02-25T07:53:37.532Z,2.11
2023-02-25T07:56:05.832Z,2.12
2023-02-25T07:58:33.316Z,2.15
2023-02-25T08:01:02.879Z,2.18
2023-02-25T08:03:30.942Z,2.22
2023-02-25T08:05:58.957Z,2.24
2023-02-25T08:08:26.085Z,2.26
2023-02-25T08:10:53.967Z,2.28
2023-02-25T08:13:22.250Z,2.28
2023-02-25T08:15:49.321Z,2.29
2023-02-25T08:18:18.496Z,2.30
2023-02-25T08:20:47.763Z,2.32
2023-02-25T08:23:15.172Z,2.34
2023-02-25T08:25:42.272Z,2.36
2023-02-25T08:28:09.848Z,2.39
2023-02-25T08:30:37.625Z,2.41
2023-02-25T08:33:04.697Z,2.42
2023-02-25T08:35:31.886Z,2.42
2023-02-25T08:37:58.748Z,2.44
2023-02-25T08:40:26.000Z,2.47
2023-02-25T08:42:53.181Z,2.49
2023-02-25T08:45:21.385Z,2.52
2023-02-25T08:47:48.424Z,2.53
2023-02-25T08:50:18.997Z,2.55
2023-02-25T08:52:47.350Z,2.57
2023-02-25T08:55:14.564Z,2.60
2023-02-25T08:57:43.089Z,2.64
2023-02-25T09:00:14.584Z,2.68
2023-02-25T09:02:42.343Z,2.71
2023-02-25T09:05:09.284Z,2.74
2023-02-25T09:07:36.537Z,2.77
2023-02-25T09:10:08.668Z,2.79
2023-02-25T09:12:37.681Z,2.82
2023-02-25T09:15:05.314Z,2.84
2023-02-25T09:17:32.672Z,2.85
2023-02-25T09:20:00.870Z,2.87
2023-02-25T09:22:27.945Z,2.90
2023-02-25T09:24:55.454Z,2.93
2023-02-25T09:27:22.262Z,2.97
2023-02-25T09:29:49.572Z,2.99
2023-02-25T09:32:20.500Z,3.02
2023-02-25T09:34:49.412Z,3.04
2023-02-25T09:37:19.097Z,3.05
2023-02-25T09:39:46.273Z,3.06
2023-02-25T09:42:13.308Z,3.08
2023-02-25T09:44:56.160Z,3.11
2023-02-25T09:47:27.944Z,3.14
2023-02-25T09:49:57.913Z,3.18
2023-02-25T09:52:40.208Z,3.22
2023-02-25T09:55:27.838Z,3.25
2023-02-25T09:58:33.520Z,3.29
2023-02-25T10:01:10.408Z,3.34
2023-02-25T10:03:45.144Z,3.37
2023-02-25T10:06:22.278Z,3.41
2023-02-25T10:08:56.076Z,3.46
2023-02-25T10:11:42.567Z,3.50
2023-02-25T10:14:10.281Z,3.55
2023-02-25T10:16:38.357Z,3.58
2023-02-25T10:19:07.971Z,3.62
2023-02-25T10:22:07.564Z,3.67
2023-02-25T10:24:43.712Z,3.72
2023-02-25T10:27:33.534Z,3.77
2023-02-25T10:30:34.870Z,3.81
2023-02-25T10:33:34.074Z,3.86
2023-02-25T10:36:09.260Z,3.93
2023-02-25T10:38:41.516Z,3.99
2023-02-25T10:41:08.626Z,4.03
2023-02-25T10:43:35.677Z,4.07
2023-02-25T10:46:10.721Z,4.11
2023-02-25T10:48:41.181Z,4.13
2023-02-25T10:51:15.129Z,4.15
2023-02-25T10:53:57.249Z,4.18
2023-02-25T10:56:32.685Z,4.19
2023-02-25T10:59:04.621Z,4.21
2023-02-25T11:01:39.236Z,4.23
2023-02-25T11:04:13.467Z,4.25
2023-02-25T11:06:42.900Z,4.26
2023-02-25T11:09:19.269Z,4.29
2023-02-25T11:11:57.684Z,4.33
2023-02-25T11:14:32.991Z,4.36
2023-02-25T11:17:11.738Z,4.40
2023-02-25T11:19:42.651Z,4.44
2023-02-25T11:22:18.032Z,4.48
2023-02-25T11:25:00.260Z,4.53
2023-02-25T11:27:39.615Z,4.55
2023-02-25T11:30:14.014Z,4.56
2023-02-25T11:32:53.291Z,4.57
2023-02-25T11:35:29.253Z,4.58
2023-02-25T11:38:13.833Z,4.60
2023-02-25T11:40:44.977Z,4.66
2023-02-25T11:43:35.239Z,4.75
2023-02-25T11:46:08.484Z,4.92
2023-02-25T11:48:53.325Z,5.07
2023-02-25T11:51:31.441Z,5.18
2023-02-25T11:54:11.577Z,5.24
2023-02-25T11:56:44.624Z,5.29
2023-02-25T11:59:42.211Z,5.32
2023-02-25T12:02:24.575Z,5.39
2023-02-25T12:05:19.099Z,5.47
2023-02-25T12:08:14.907Z,5.57
2023-02-25T12:10:48.323Z,5.67
2023-02-25T12:13:53.693Z,5.74
2023-02-25T12:16:58.546Z,5.83
2023-02-25T12:19:25.415Z,5.93
2023-02-25T12:22:45.846Z,5.99
2023-02-25T12:25:36.347Z,6.09
2023-02-25T12:28:44.890Z,6.15
2023-02-25T12:31:33.597Z,6.21
2023-02-25T12:34:33.254Z,6.25
2023-02-25T12:37:13.347Z,6.28
2023-02-25T12:39:46.936Z,6.28
2023-02-25T12:42:30.365Z,6.25
2023-02-25T12:45:03.529Z,6.24
2023-02-25T12:47:45.857Z,6.21
2023-02-25T12:50:22.089Z,6.20
2023-02-25T12:53:13.605Z,6.23
2023-02-25T12:55:52.165Z,6.27
2023-02-25T12:58:27.385Z,6.33
2023-02-25T13:01:00.319Z,6.43
2023-02-25T13:04:02.559Z,6.51
2023-02-25T13:07:05.956Z,6.56
2023-02-25T13:10:00.975Z,6.56
2023-02-25T13:12:30.933Z,6.53
2023-02-25T13:15:25.600Z,6.49
2023-02-25T13:18:27.199Z,6.49
2023-02-25T13:21:20.575Z,6.50
2023-02-25T13:24:11.172Z,6.53
2023-02-25T13:27:12.118Z,6.58
2023-02-25T13:29:48.691Z,6.62
2023-02-25T13:32:38.695Z,6.64
2023-02-25T13:35:31.790Z,6.66
2023-02-25T13:38:11.304Z,6.67
2023-02-25T13:41:00.221Z,6.68
2023-02-25T13:44:04.863Z,6.66
2023-02-25T13:46:52.481Z,6.65
2023-02-25T13:49:22.156Z,6.61
2023-02-25T13:51:55.431Z,6.57
2023-02-25T13:54:37.296Z,6.52
2023-02-25T13:57:14.075Z,6.45
2023-02-25T13:59:50.828Z,6.41
2023-02-25T14:02:36.168Z,6.39
2023-02-25T14:05:03.976Z,6.38
2023-02-25T14:07:47.577Z,6.39
2023-02-25T14:10:26.575Z,6.38
2023-02-25T14:13:41.936Z,6.36
2023-02-25T14:16:28.432Z,6.32
2023-02-25T14:19:28.803Z,6.27
2023-02-25T14:22:20.616Z,6.22
2023-02-25T14:25:22.678Z,6.18
2023-02-25T14:28:05.445Z,6.14
2023-02-25T14:30:41.557Z,6.11
2023-02-25T14:33:33.891Z,6.08
2023-02-25T14:36:22.503Z,6.04
2023-02-25T14:39:07.787Z,5.99
2023-02-25T14:41:46.666Z,5.94
2023-02-25T14:44:27.616Z,5.90
2023-02-25T14:47:04.589Z,5.86
2023-02-25T14:49:40.475Z,5.82
2023-02-25T14:52:37.306Z,5.77
2023-02-25T14:55:32.652Z,5.74
2023-02-25T14:58:11.521Z,5.72
2023-02-25T15:01:03.468Z,5.69
2023-02-25T15:03:43.320Z,5.66
2023-02-25T15:06:52.386Z,5.63
2023-02-25T15:09:53.295Z,5.59
2023-02-25T15:12:23.573Z,5.55
2023-02-25T15:14:50.403Z,5.53
2023-02-25T15:17:55.997Z,5.49
2023-02-25T15:20:40.861Z,5.46
2023-02-25T15:23:13.036Z,5.43
2023-02-25T15:25:45.393Z,5.42
2023-02-25T15:28:40.742Z,5.39
2023-02-25T15:31:28.156Z,5.36
2023-02-25T15:34:22.319Z,5.33
2023-02-25T15:36:51.988Z,5.30
2023-02-25T15:39:42.274Z,5.28
2023-02-25T15:42:11.602Z,5.26
2023-02-25T15:44:40.662Z,5.26
2023-02-25T15:47:21.269Z,5.26
2023-02-25T15:49:48.943Z,5.28
2023-02-25T15:52:52.519Z,5.28
2023-02-25T15:55:34.484Z,5.28
2023-02-25T15:58:11.659Z,5.28
2023-02-25T16:01:22.194Z,5.28
2023-02-25T16:03:49.512Z,5.29
2023-02-25T16:06:40.883Z,5.31
2023-02-25T16:09:16.997Z,5.33
2023-02-25T16:11:49.349Z,5.34
2023-02-25T16:14:33.221Z,5.36
2023-02-25T16:17:03.295Z,5.37
2023-02-25T16:19:38.691Z,5.40
2023-02-25T16:22:17.662Z,5.42
2023-02-25T16:24:53.709Z,5.42
2023-02-25T16:27:29.390Z,5.43
2023-02-25T16:30:08.156Z,5.44
2023-02-25T16:33:20.863Z,5.46
2023-02-25T16:36:06.978Z,5.48
2023-02-25T16:38:56.370Z,5.48
2023-02-25T16:41:33.304Z,5.49
2023-02-25T16:44:05.392Z,5.50
2023-02-25T16:46:37.115Z,5.50
2023-02-25T16:49:20.527Z,5.49
2023-02-25T16:51:47.582Z,5.49
2023-02-25T16:54:26.164Z,5.49
2023-02-25T16:56:58.881Z,5.49
2023-02-25T16:59:29.867Z,5.49
2023-02-25T17:02:16.525Z,5.48
2023-02-25T17:04:47.740Z,5.49
2023-02-25T17:07:24.643Z,5.48
2023-02-25T17:09:58.892Z,5.48
2023-02-25T17:12:40.587Z,5.48
2023-02-25T17:15:16.562Z,5.46
2023-02-25T17:17:44.994Z,5.45
2023-02-25T17:20:22.835Z,5.45
2023-02-25T17:22:51.428Z,5.45
2023-02-25T17:25:20.894Z,5.43
2023-02-25T17:27:49.854Z,5.41
2023-02-25T17:30:35.965Z,5.39
2023-02-25T17:33:05.551Z,5.37
2023-02-25T17:35:35.778Z,5.36
2023-02-25T17:38:03.964Z,5.35
2023-02-25T17:40:31.727Z,5.34
2023-02-25T17:43:13.967Z,5.34
2023-02-25T17:45:57.229Z,5.34
2023-02-25T17:48:29.761Z,5.34
2023-02-25T17:51:00.980Z,5.35
2023-02-25T17:53:47.810Z,5.35
2023-02-25T17:56:30.648Z,5.36
2023-02-25T17:59:07.000Z,5.36
2023-02-25T18:01:56.316Z,5.35
2023-02-25T18:04:35.969Z,5.33
2023-02-25T18:07:29.194Z,5.32
2023-02-25T18:09:58.522Z,5.30
2023-02-25T18:12:33.620Z,5.29
2023-02-25T18:15:23.572Z,5.28
2023-02-25T18:17:55.883Z,5.27
2023-02-25T18:20:36.206Z,5.25
2023-02-25T18:23:07.493Z,5.24
2023-02-25T18:25:43.107Z,5.23
2023-02-25T18:28:16.099Z,5.22
2023-02-25T18:30:48.679Z,5.21
2023-02-25T18:33:17.230Z,5.21
2023-02-25T18:35:48.819Z,5.21
2023-02-25T18:38:21.118Z,5.22
2023-02-25T18:40:54.293Z,5.23
2023-02-25T18:43:33.843Z,5.24
2023-02-25T18:46:02.210Z,5.27
2023-02-25T18:48:31.827Z,5.28
2023-02-25T18:50:58.731Z,5.31
2023-02-25T18:53:26.776Z,5.33
2023-02-25T18:55:56.024Z,5.34
2023-02-25T18:58:25.342Z,5.33
2023-02-25T19:00:55.888Z,5.34
2023-02-25T19:03:32.672Z,5.35
2023-02-25T19:06:00.293Z,5.37
2023-02-25T19:08:27.298Z,5.37
2023-02-25T19:10:55.353Z,5.38
2023-02-25T19:13:38.456Z,5.39
2023-02-25T19:16:06.646Z,5.41
2023-02-25T19:18:34.552Z,5.41
2023-02-25T19:21:11.166Z,5.42
2023-02-25T19:23:38.489Z,5.43
2023-02-25T19:26:06.067Z,5.44
2023-02-25T19:28:34.600Z,5.44
2023-02-25T19:31:05.159Z,5.45
2023-02-25T19:33:32.356Z,5.45
2023-02-25T19:36:02.337Z,5.45
2023-02-25T19:38:29.416Z,5.45
2023-02-25T19:41:02.180Z,5.45
2023-02-25T19:43:31.284Z,5.45
2023-02-25T19:45:59.828Z,5.45
2023-02-25T19:48:27.391Z,5.45
2023-02-25T19:50:54.651Z,5.44
2023-02-25T19:53:25.616Z,5.44
2023-02-25T19:55:56.014Z,5.45
2023-02-25T19:58:24.258Z,5.45
2023-02-25T20:00:51.246Z,5.46
2023-02-25T20:03:18.827Z,5.46
2023-02-25T20:05:45.824Z,5.45
2023-02-25T20:08:12.753Z,5.45
2023-02-25T20:10:42.170Z,5.45
2023-02-25T20:13:10.291Z,5.46
2023-02-25T20:15:39.761Z,5.47
2023-02-25T20:18:06.968Z,5.45
2023-02-25T20:20:36.331Z,5.45
2023-02-25T20:23:03.260Z,5.45
2023-02-25T20:25:30.061Z,5.44
2023-02-25T20:27:57.505Z,5.45
2023-02-25T20:30:24.499Z,5.45
2023-02-25T20:32:51.463Z,5.45
2023-02-25T20:35:21.108Z,5.46
2023-02-25T20:38:30.894Z,5.45
2023-02-25T20:41:03.736Z,5.46
2023-02-25T20:43:31.381Z,5.46
2023-02-25T20:45:58.569Z,5.46
2023-02-25T20:48:32.168Z,5.44
2023-02-25T20:50:59.642Z,5.44
2023-02-25T20:53:26.598Z,5.44
2023-02-25T20:55:57.071Z,5.45
2023-02-25T20:58:23.890Z,5.45
2023-02-25T21:00:51.136Z,5.46
2023-02-25T21:03:18.038Z,5.49
2023-02-25T21:05:45.000Z,5.51
2023-02-25T21:08:11.948Z,5.53
2023-02-25T21:10:42.882Z,5.56
2023-02-25T21:13:10.188Z,5.59
2023-02-25T21:15:39.006Z,5.62
2023-02-25T21:18:07.676Z,5.64
2023-02-25T21:20:34.549Z,5.66
2023-02-25T21:23:01.398Z,5.67
2023-02-25T21:25:30.276Z,5.68
2023-02-25T21:27:57.956Z,5.70
2023-02-25T21:30:26.288Z,5.71
2023-02-25T21:32:53.186Z,5.72
2023-02-25T21:35:24.530Z,5.73
2023-02-25T21:37:51.364Z,5.74
2023-02-25T21:40:20.232Z,5.75
2023-02-25T21:42:51.012Z,5.78
2023-02-25T21:45:17.842Z,5.80
2023-02-25T21:47:44.726Z,5.82
2023-02-25T21:50:12.967Z,5.84
2023-02-25T21:52:42.149Z,5.87
2023-02-25T21:55:09.420Z,5.89
2023-02-25T21:57:37.845Z,5.89
2023-02-25T22:00:07.122Z,5.90
2023-02-25T22:02:41.450Z,5.92
2023-02-25T22:05:09.134Z,5.94
2023-02-25T22:07:41.783Z,5.95
2023-02-25T22:10:10.244Z,5.96
2023-02-25T22:12:37.184Z,5.96
2023-02-25T22:15:07.146Z,5.97
2023-02-25T22:17:35.988Z,5.97
2023-02-25T22:20:06.635Z,5.97
2023-02-25T22:22:36.542Z,5.97
2023-02-25T22:25:04.831Z,5.97
2023-02-25T22:27:32.294Z,5.98
2023-02-25T22:29:59.272Z,5.98
2023-02-25T22:32:27.672Z,5.98
2023-02-25T22:34:54.680Z,5.99
2023-02-25T22:37:22.203Z,6.00
2023-02-25T22:39:49.558Z,6.02
2023-02-25T22:42:16.391Z,6.05
2023-02-25T22:44:44.352Z,6.07
2023-02-25T22:47:11.443Z,6.10
2023-02-25T22:49:38.786Z,6.13
2023-02-25T22:52:05.908Z,6.15
2023-02-25T22:54:33.060Z,6.17
2023-02-25T22:57:00.039Z,6.20
2023-02-25T22:59:27.005Z,6.24
2023-02-25T23:01:53.940Z,6.27
2023-02-25T23:04:21.129Z,6.30
2023-02-25T23:06:50.325Z,6.33
2023-02-25T23:09:17.751Z,6.37
2023-02-25T23:11:49.211Z,6.39
2023-02-25T23:14:17.743Z,6.44
2023-02-25T23:16:45.371Z,6.48
2023-02-25T23:19:16.258Z,6.50
2023-02-25T23:21:43.494Z,6.53
2023-02-25T23:24:18.071Z,6.55
2023-02-25T23:26:47.140Z,6.57
2023-02-25T23:29:14.425Z,6.59
2023-02-25T23:31:44.960Z,6.60
2023-02-25T23:34:14.464Z,6.62
2023-02-25T23:36:44.078Z,6.64
2023-02-25T23:39:13.586Z,6.65
2023-02-25T23:41:41.465Z,6.66
2023-02-25T23:44:12.495Z,6.68
2023-02-25T23:46:47.305Z,6.70
2023-02-25T23:49:16.044Z,6.69
2023-02-25T23:51:45.574Z,6.69
2023-02-25T23:54:16.617Z,6.69
2023-02-25T23:56:44.285Z,6.69
2023-02-25T23:59:12.709Z,6.69
